sensor_id;sensor_type;location;lat;lon;timestamp;pressure;altitude;pressure_sealevel;temperature
82411;BMP180;76378;60.040;30.218;2024-03-08T00:00:27;101108.00;;;7.70
82411;BMP180;76378;60.040;30.218;2024-03-08T00:01:28;101111.00;;;7.70
82411;BMP180;76378;60.040;30.218;2024-03-08T00:02:28;101053.00;;;7.70
82411;BMP180;76378;60.040;30.218;2024-03-08T00:03:29;101092.00;;;7.70
82411;BMP180;76378;60.040;30.218;2024-03-08T00:04:30;101100.00;;;7.70
82411;BMP180;76378;60.040;30.218;2024-03-08T00:05:31;101094.00;;;7.70
82411;BMP180;76378;60.040;30.218;2024-03-08T00:06:32;101079.00;;;7.70
82411;BMP180;76378;60.040;30.218;2024-03-08T00:07:32;101084.00;;;7.70
82411;BMP180;76378;60.040;30.218;2024-03-08T00:08:33;101099.00;;;7.70
82411;BMP180;76378;60.040;30.218;2024-03-08T00:09:34;101030.00;;;7.70
82411;BMP180;76378;60.040;30.218;2024-03-08T00:10:34;101101.00;;;7.70
82411;BMP180;76378;60.040;30.218;2024-03-08T00:11:35;101102.00;;;7.70
82411;BMP180;76378;60.040;30.218;2024-03-08T00:12:35;101060.00;;;7.70
82411;BMP180;76378;60.040;30.218;2024-03-08T00:13:36;101053.00;;;7.70
82411;BMP180;76378;60.040;30.218;2024-03-08T00:14:37;101081.00;;;7.70
82411;BMP180;76378;60.040;30.218;2024-03-08T00:15:37;101045.00;;;7.70
82411;BMP180;76378;60.040;30.218;2024-03-08T00:16:38;101104.00;;;7.70
82411;BMP180;76378;60.040;30.218;2024-03-08T00:17:39;101129.00;;;7.70
82411;BMP180;76378;60.040;30.218;2024-03-08T00:18:40;101080.00;;;7.70
82411;BMP180;76378;60.040;30.218;2024-03-08T00:19:41;101042.00;;;7.70
82411;BMP180;76378;60.040;30.218;2024-03-08T00:20:42;101109.00;;;7.70
82411;BMP180;76378;60.040;30.218;2024-03-08T00:21:44;101074.00;;;7.70
82411;BMP180;76378;60.040;30.218;2024-03-08T00:22:45;101048.00;;;7.70
82411;BMP180;76378;60.040;30.218;2024-03-08T00:23:46;101066.00;;;7.70
82411;BMP180;76378;60.040;30.218;2024-03-08T00:24:47;101054.00;;;7.70
82411;BMP180;76378;60.040;30.218;2024-03-08T00:25:49;101083.00;;;7.70
82411;BMP180;76378;60.040;30.218;2024-03-08T00:26:50;101035.00;;;7.80
82411;BMP180;76378;60.040;30.218;2024-03-08T00:27:50;101044.00;;;7.70
82411;BMP180;76378;60.040;30.218;2024-03-08T00:28:51;101094.00;;;7.80
82411;BMP180;76378;60.040;30.218;2024-03-08T00:29:52;101099.00;;;7.80
82411;BMP180;76378;60.040;30.218;2024-03-08T00:30:52;101093.00;;;7.80
82411;BMP180;76378;60.040;30.218;2024-03-08T00:31:53;101106.00;;;7.80
82411;BMP180;76378;60.040;30.218;2024-03-08T00:32:53;101042.00;;;7.80
82411;BMP180;76378;60.040;30.218;2024-03-08T00:33:54;101107.00;;;7.80
82411;BMP180;76378;60.040;30.218;2024-03-08T00:34:54;101034.00;;;7.80
82411;BMP180;76378;60.040;30.218;2024-03-08T00:35:55;101096.00;;;7.80
82411;BMP180;76378;60.040;30.218;2024-03-08T00:36:56;100997.00;;;7.80
82411;BMP180;76378;60.040;30.218;2024-03-08T00:37:56;101043.00;;;7.80
82411;BMP180;76378;60.040;30.218;2024-03-08T00:38:57;101071.00;;;7.80
82411;BMP180;76378;60.040;30.218;2024-03-08T00:39:57;101078.00;;;7.80
82411;BMP180;76378;60.040;30.218;2024-03-08T00:40:58;101008.00;;;7.80
82411;BMP180;76378;60.040;30.218;2024-03-08T00:41:58;101101.00;;;7.80
82411;BMP180;76378;60.040;30.218;2024-03-08T00:42:59;101058.00;;;7.80
82411;BMP180;76378;60.040;30.218;2024-03-08T00:43:59;101004.00;;;7.80
82411;BMP180;76378;60.040;30.218;2024-03-08T00:45:01;101060.00;;;7.80
82411;BMP180;76378;60.040;30.218;2024-03-08T00:46:01;101094.00;;;7.80
82411;BMP180;76378;60.040;30.218;2024-03-08T00:47:02;101114.00;;;7.80
82411;BMP180;76378;60.040;30.218;2024-03-08T00:48:04;101055.00;;;7.80
82411;BMP180;76378;60.040;30.218;2024-03-08T00:49:06;101040.00;;;7.80
82411;BMP180;76378;60.040;30.218;2024-03-08T00:50:07;101082.00;;;7.80
82411;BMP180;76378;60.040;30.218;2024-03-08T00:51:08;101087.00;;;7.80
82411;BMP180;76378;60.040;30.218;2024-03-08T00:52:09;101076.00;;;7.80
82411;BMP180;76378;60.040;30.218;2024-03-08T00:53:09;101087.00;;;7.80
82411;BMP180;76378;60.040;30.218;2024-03-08T00:54:11;101091.00;;;7.80
82411;BMP180;76378;60.040;30.218;2024-03-08T00:55:12;101082.00;;;7.80
82411;BMP180;76378;60.040;30.218;2024-03-08T00:56:12;101043.00;;;7.80
82411;BMP180;76378;60.040;30.218;2024-03-08T00:57:13;101087.00;;;7.80
82411;BMP180;76378;60.040;30.218;2024-03-08T00:58:13;101100.00;;;7.80
82411;BMP180;76378;60.040;30.218;2024-03-08T00:59:14;101021.00;;;7.80
82411;BMP180;76378;60.040;30.218;2024-03-08T01:00:15;101060.00;;;7.80
82411;BMP180;76378;60.040;30.218;2024-03-08T01:01:15;101083.00;;;7.90
82411;BMP180;76378;60.040;30.218;2024-03-08T01:02:16;101070.00;;;7.80
82411;BMP180;76378;60.040;30.218;2024-03-08T01:03:19;101048.00;;;7.80
82411;BMP180;76378;60.040;30.218;2024-03-08T01:04:20;101045.00;;;7.80
82411;BMP180;76378;60.040;30.218;2024-03-08T01:05:21;101032.00;;;7.90
82411;BMP180;76378;60.040;30.218;2024-03-08T01:06:24;101056.00;;;7.80
82411;BMP180;76378;60.040;30.218;2024-03-08T01:07:25;100991.00;;;7.80
82411;BMP180;76378;60.040;30.218;2024-03-08T01:08:25;101083.00;;;7.80
82411;BMP180;76378;60.040;30.218;2024-03-08T01:09:27;101094.00;;;7.80
82411;BMP180;76378;60.040;30.218;2024-03-08T01:10:27;101078.00;;;7.80
82411;BMP180;76378;60.040;30.218;2024-03-08T01:11:28;101060.00;;;7.80
82411;BMP180;76378;60.040;30.218;2024-03-08T01:12:29;101051.00;;;7.80
82411;BMP180;76378;60.040;30.218;2024-03-08T01:13:30;101099.00;;;7.90
82411;BMP180;76378;60.040;30.218;2024-03-08T01:14:30;101049.00;;;7.80
82411;BMP180;76378;60.040;30.218;2024-03-08T01:15:31;101031.00;;;7.80
82411;BMP180;76378;60.040;30.218;2024-03-08T01:16:31;101057.00;;;7.90
82411;BMP180;76378;60.040;30.218;2024-03-08T01:17:33;101014.00;;;7.80
82411;BMP180;76378;60.040;30.218;2024-03-08T01:18:34;101074.00;;;7.90
82411;BMP180;76378;60.040;30.218;2024-03-08T01:19:35;101092.00;;;7.80
82411;BMP180;76378;60.040;30.218;2024-03-08T01:20:35;101100.00;;;7.80
82411;BMP180;76378;60.040;30.218;2024-03-08T01:21:36;101011.00;;;7.80
82411;BMP180;76378;60.040;30.218;2024-03-08T01:22:36;101058.00;;;7.80
82411;BMP180;76378;60.040;30.218;2024-03-08T01:23:37;101057.00;;;7.80
82411;BMP180;76378;60.040;30.218;2024-03-08T01:24:38;101055.00;;;7.80
82411;BMP180;76378;60.040;30.218;2024-03-08T01:25:39;101029.00;;;7.80
82411;BMP180;76378;60.040;30.218;2024-03-08T01:26:39;101050.00;;;7.80
82411;BMP180;76378;60.040;30.218;2024-03-08T01:27:40;101091.00;;;7.80
82411;BMP180;76378;60.040;30.218;2024-03-08T01:28:40;101042.00;;;7.80
82411;BMP180;76378;60.040;30.218;2024-03-08T01:29:41;101086.00;;;7.90
82411;BMP180;76378;60.040;30.218;2024-03-08T01:30:42;101045.00;;;7.80
82411;BMP180;76378;60.040;30.218;2024-03-08T01:31:43;101066.00;;;7.80
82411;BMP180;76378;60.040;30.218;2024-03-08T01:32:43;101032.00;;;7.80
82411;BMP180;76378;60.040;30.218;2024-03-08T01:33:44;101041.00;;;7.80
82411;BMP180;76378;60.040;30.218;2024-03-08T01:34:45;101102.00;;;7.80
82411;BMP180;76378;60.040;30.218;2024-03-08T01:35:45;101085.00;;;7.80
82411;BMP180;76378;60.040;30.218;2024-03-08T01:36:46;101073.00;;;7.80
82411;BMP180;76378;60.040;30.218;2024-03-08T01:37:46;101079.00;;;7.80
82411;BMP180;76378;60.040;30.218;2024-03-08T01:38:48;101032.00;;;7.90
82411;BMP180;76378;60.040;30.218;2024-03-08T01:39:48;101049.00;;;7.90
82411;BMP180;76378;60.040;30.218;2024-03-08T01:40:49;101053.00;;;7.80
82411;BMP180;76378;60.040;30.218;2024-03-08T01:41:50;101008.00;;;7.80
82411;BMP180;76378;60.040;30.218;2024-03-08T01:42:50;101090.00;;;7.80
82411;BMP180;76378;60.040;30.218;2024-03-08T01:43:51;101026.00;;;7.80
82411;BMP180;76378;60.040;30.218;2024-03-08T01:44:53;101084.00;;;7.80
82411;BMP180;76378;60.040;30.218;2024-03-08T01:45:56;101062.00;;;7.80
82411;BMP180;76378;60.040;30.218;2024-03-08T01:46:59;101018.00;;;7.80
82411;BMP180;76378;60.040;30.218;2024-03-08T01:47:59;101084.00;;;7.80
82411;BMP180;76378;60.040;30.218;2024-03-08T01:49:01;101034.00;;;7.90
82411;BMP180;76378;60.040;30.218;2024-03-08T01:50:02;101085.00;;;7.90
82411;BMP180;76378;60.040;30.218;2024-03-08T01:51:04;101083.00;;;7.90
82411;BMP180;76378;60.040;30.218;2024-03-08T01:52:05;101044.00;;;7.80
82411;BMP180;76378;60.040;30.218;2024-03-08T01:53:08;101034.00;;;7.90
82411;BMP180;76378;60.040;30.218;2024-03-08T01:54:10;101058.00;;;7.90
82411;BMP180;76378;60.040;30.218;2024-03-08T01:55:11;101080.00;;;7.90
82411;BMP180;76378;60.040;30.218;2024-03-08T01:56:14;101065.00;;;7.90
82411;BMP180;76378;60.040;30.218;2024-03-08T01:57:15;101032.00;;;7.90
82411;BMP180;76378;60.040;30.218;2024-03-08T01:58:16;101070.00;;;7.90
82411;BMP180;76378;60.040;30.218;2024-03-08T01:59:17;101077.00;;;7.90
82411;BMP180;76378;60.040;30.218;2024-03-08T02:00:18;101079.00;;;7.90
82411;BMP180;76378;60.040;30.218;2024-03-08T02:01:21;101069.00;;;7.90
82411;BMP180;76378;60.040;30.218;2024-03-08T02:02:21;101084.00;;;7.90
82411;BMP180;76378;60.040;30.218;2024-03-08T02:03:22;101086.00;;;7.90
82411;BMP180;76378;60.040;30.218;2024-03-08T02:04:23;100996.00;;;7.90
82411;BMP180;76378;60.040;30.218;2024-03-08T02:05:25;101063.00;;;7.90
82411;BMP180;76378;60.040;30.218;2024-03-08T02:06:25;101086.00;;;7.80
82411;BMP180;76378;60.040;30.218;2024-03-08T02:07:26;101080.00;;;7.90
82411;BMP180;76378;60.040;30.218;2024-03-08T02:08:27;101045.00;;;7.90
82411;BMP180;76378;60.040;30.218;2024-03-08T02:09:27;101075.00;;;7.90
82411;BMP180;76378;60.040;30.218;2024-03-08T02:10:28;101057.00;;;7.90
82411;BMP180;76378;60.040;30.218;2024-03-08T02:11:29;101012.00;;;7.90
82411;BMP180;76378;60.040;30.218;2024-03-08T02:12:29;101042.00;;;7.90
82411;BMP180;76378;60.040;30.218;2024-03-08T02:13:30;101002.00;;;7.80
82411;BMP180;76378;60.040;30.218;2024-03-08T02:14:31;101059.00;;;7.90
82411;BMP180;76378;60.040;30.218;2024-03-08T02:16:50;101009.00;;;7.80
82411;BMP180;76378;60.040;30.218;2024-03-08T02:17:51;101090.00;;;7.90
82411;BMP180;76378;60.040;30.218;2024-03-08T02:18:53;101032.00;;;7.90
82411;BMP180;76378;60.040;30.218;2024-03-08T02:19:54;101032.00;;;7.90
82411;BMP180;76378;60.040;30.218;2024-03-08T02:21:02;101015.00;;;7.80
82411;BMP180;76378;60.040;30.218;2024-03-08T02:22:03;101072.00;;;7.90
82411;BMP180;76378;60.040;30.218;2024-03-08T02:23:04;101022.00;;;7.90
82411;BMP180;76378;60.040;30.218;2024-03-08T02:24:06;101053.00;;;7.90
82411;BMP180;76378;60.040;30.218;2024-03-08T02:25:08;101038.00;;;7.90
82411;BMP180;76378;60.040;30.218;2024-03-08T02:26:08;101006.00;;;7.90
82411;BMP180;76378;60.040;30.218;2024-03-08T02:27:09;100983.00;;;7.90
82411;BMP180;76378;60.040;30.218;2024-03-08T02:28:12;101075.00;;;7.90
82411;BMP180;76378;60.040;30.218;2024-03-08T02:29:13;101076.00;;;7.80
82411;BMP180;76378;60.040;30.218;2024-03-08T02:30:14;101055.00;;;7.90
82411;BMP180;76378;60.040;30.218;2024-03-08T02:31:17;101046.00;;;7.90
82411;BMP180;76378;60.040;30.218;2024-03-08T02:32:18;101051.00;;;7.90
82411;BMP180;76378;60.040;30.218;2024-03-08T02:33:18;101014.00;;;7.90
82411;BMP180;76378;60.040;30.218;2024-03-08T02:34:19;100998.00;;;7.90
82411;BMP180;76378;60.040;30.218;2024-03-08T02:35:20;101075.00;;;7.90
82411;BMP180;76378;60.040;30.218;2024-03-08T02:36:21;101083.00;;;7.90
82411;BMP180;76378;60.040;30.218;2024-03-08T02:37:21;101069.00;;;7.90
82411;BMP180;76378;60.040;30.218;2024-03-08T02:38:23;101067.00;;;7.90
82411;BMP180;76378;60.040;30.218;2024-03-08T02:39:24;101082.00;;;7.90
82411;BMP180;76378;60.040;30.218;2024-03-08T02:40:25;101020.00;;;7.90
82411;BMP180;76378;60.040;30.218;2024-03-08T02:41:26;101037.00;;;7.90
82411;BMP180;76378;60.040;30.218;2024-03-08T02:42:26;101027.00;;;7.90
82411;BMP180;76378;60.040;30.218;2024-03-08T02:43:27;101073.00;;;7.90
82411;BMP180;76378;60.040;30.218;2024-03-08T02:44:28;101039.00;;;7.90
82411;BMP180;76378;60.040;30.218;2024-03-08T02:45:28;101051.00;;;7.90
82411;BMP180;76378;60.040;30.218;2024-03-08T02:46:30;101061.00;;;7.90
82411;BMP180;76378;60.040;30.218;2024-03-08T02:47:31;101072.00;;;7.90
82411;BMP180;76378;60.040;30.218;2024-03-08T02:48:32;101081.00;;;7.90
82411;BMP180;76378;60.040;30.218;2024-03-08T02:49:32;101079.00;;;7.90
82411;BMP180;76378;60.040;30.218;2024-03-08T02:50:33;101080.00;;;7.90
82411;BMP180;76378;60.040;30.218;2024-03-08T02:51:35;101081.00;;;7.90
82411;BMP180;76378;60.040;30.218;2024-03-08T02:52:36;101032.00;;;7.90
82411;BMP180;76378;60.040;30.218;2024-03-08T02:53:36;101066.00;;;7.90
82411;BMP180;76378;60.040;30.218;2024-03-08T02:54:37;101095.00;;;7.90
82411;BMP180;76378;60.040;30.218;2024-03-08T02:55:39;101093.00;;;7.90
82411;BMP180;76378;60.040;30.218;2024-03-08T02:56:40;101070.00;;;7.90
82411;BMP180;76378;60.040;30.218;2024-03-08T02:57:42;101088.00;;;7.90
82411;BMP180;76378;60.040;30.218;2024-03-08T02:58:43;101044.00;;;7.90
82411;BMP180;76378;60.040;30.218;2024-03-08T02:59:48;101081.00;;;7.90
82411;BMP180;76378;60.040;30.218;2024-03-08T03:00:49;101081.00;;;7.90
82411;BMP180;76378;60.040;30.218;2024-03-08T03:01:50;101076.00;;;7.90
82411;BMP180;76378;60.040;30.218;2024-03-08T03:02:51;101040.00;;;7.90
82411;BMP180;76378;60.040;30.218;2024-03-08T03:03:54;101095.00;;;7.90
82411;BMP180;76378;60.040;30.218;2024-03-08T03:04:54;101033.00;;;7.90
82411;BMP180;76378;60.040;30.218;2024-03-08T03:05:56;101069.00;;;7.90
82411;BMP180;76378;60.040;30.218;2024-03-08T03:06:56;101081.00;;;7.90
82411;BMP180;76378;60.040;30.218;2024-03-08T03:07:58;101076.00;;;7.90
82411;BMP180;76378;60.040;30.218;2024-03-08T03:08:58;101036.00;;;7.90
82411;BMP180;76378;60.040;30.218;2024-03-08T03:09:59;101103.00;;;7.90
82411;BMP180;76378;60.040;30.218;2024-03-08T03:11:03;101074.00;;;7.90
82411;BMP180;76378;60.040;30.218;2024-03-08T03:12:03;101092.00;;;7.90
82411;BMP180;76378;60.040;30.218;2024-03-08T03:13:04;101086.00;;;7.90
82411;BMP180;76378;60.040;30.218;2024-03-08T03:14:05;101027.00;;;7.90
82411;BMP180;76378;60.040;30.218;2024-03-08T03:15:07;101023.00;;;7.90
82411;BMP180;76378;60.040;30.218;2024-03-08T03:16:08;101099.00;;;7.90
82411;BMP180;76378;60.040;30.218;2024-03-08T03:17:10;101069.00;;;7.90
82411;BMP180;76378;60.040;30.218;2024-03-08T03:18:11;101094.00;;;7.90
82411;BMP180;76378;60.040;30.218;2024-03-08T03:19:12;101065.00;;;7.90
82411;BMP180;76378;60.040;30.218;2024-03-08T03:20:13;101080.00;;;7.90
82411;BMP180;76378;60.040;30.218;2024-03-08T03:21:14;101103.00;;;7.90
82411;BMP180;76378;60.040;30.218;2024-03-08T03:22:15;101093.00;;;7.90
82411;BMP180;76378;60.040;30.218;2024-03-08T03:23:16;101033.00;;;7.90
82411;BMP180;76378;60.040;30.218;2024-03-08T03:24:20;101075.00;;;7.90
82411;BMP180;76378;60.040;30.218;2024-03-08T03:25:21;101086.00;;;7.90
82411;BMP180;76378;60.040;30.218;2024-03-08T03:26:42;101093.00;;;7.90
82411;BMP180;76378;60.040;30.218;2024-03-08T03:27:43;101082.00;;;7.90
82411;BMP180;76378;60.040;30.218;2024-03-08T03:28:46;101090.00;;;7.90
82411;BMP180;76378;60.040;30.218;2024-03-08T03:29:48;101105.00;;;7.90
82411;BMP180;76378;60.040;30.218;2024-03-08T03:30:49;101075.00;;;7.90
82411;BMP180;76378;60.040;30.218;2024-03-08T03:31:50;101092.00;;;7.90
82411;BMP180;76378;60.040;30.218;2024-03-08T03:32:51;101087.00;;;7.90
82411;BMP180;76378;60.040;30.218;2024-03-08T03:33:51;101092.00;;;7.90
82411;BMP180;76378;60.040;30.218;2024-03-08T03:34:52;101093.00;;;7.90
82411;BMP180;76378;60.040;30.218;2024-03-08T03:35:53;101058.00;;;7.90
82411;BMP180;76378;60.040;30.218;2024-03-08T03:36:53;101075.00;;;7.90
82411;BMP180;76378;60.040;30.218;2024-03-08T03:37:56;101103.00;;;7.90
82411;BMP180;76378;60.040;30.218;2024-03-08T03:39:14;101091.00;;;7.90
82411;BMP180;76378;60.040;30.218;2024-03-08T03:40:16;101050.00;;;7.90
82411;BMP180;76378;60.040;30.218;2024-03-08T03:41:19;101075.00;;;8.00
82411;BMP180;76378;60.040;30.218;2024-03-08T03:42:20;101108.00;;;7.90
82411;BMP180;76378;60.040;30.218;2024-03-08T03:43:20;101096.00;;;8.00
82411;BMP180;76378;60.040;30.218;2024-03-08T03:44:21;101049.00;;;8.00
82411;BMP180;76378;60.040;30.218;2024-03-08T03:45:24;101092.00;;;8.00
82411;BMP180;76378;60.040;30.218;2024-03-08T03:46:24;101064.00;;;7.90
82411;BMP180;76378;60.040;30.218;2024-03-08T03:47:27;101114.00;;;8.00
82411;BMP180;76378;60.040;30.218;2024-03-08T03:48:27;101067.00;;;8.00
82411;BMP180;76378;60.040;30.218;2024-03-08T03:49:28;101105.00;;;7.90
82411;BMP180;76378;60.040;30.218;2024-03-08T03:50:29;101075.00;;;7.90
82411;BMP180;76378;60.040;30.218;2024-03-08T03:51:30;101110.00;;;8.00
82411;BMP180;76378;60.040;30.218;2024-03-08T03:52:30;101088.00;;;7.90
82411;BMP180;76378;60.040;30.218;2024-03-08T03:53:31;101110.00;;;7.90
82411;BMP180;76378;60.040;30.218;2024-03-08T03:54:32;101096.00;;;8.00
82411;BMP180;76378;60.040;30.218;2024-03-08T03:55:34;101110.00;;;8.00
82411;BMP180;76378;60.040;30.218;2024-03-08T03:56:35;101103.00;;;7.90
82411;BMP180;76378;60.040;30.218;2024-03-08T03:57:35;101086.00;;;7.90
82411;BMP180;76378;60.040;30.218;2024-03-08T03:58:36;101104.00;;;8.00
82411;BMP180;76378;60.040;30.218;2024-03-08T03:59:36;101063.00;;;8.00
82411;BMP180;76378;60.040;30.218;2024-03-08T04:00:37;101067.00;;;7.90
82411;BMP180;76378;60.040;30.218;2024-03-08T04:01:42;101108.00;;;7.90
82411;BMP180;76378;60.040;30.218;2024-03-08T04:02:42;101049.00;;;7.90
82411;BMP180;76378;60.040;30.218;2024-03-08T04:03:43;101027.00;;;7.90
82411;BMP180;76378;60.040;30.218;2024-03-08T04:04:43;101086.00;;;8.00
82411;BMP180;76378;60.040;30.218;2024-03-08T04:05:46;101102.00;;;8.00
82411;BMP180;76378;60.040;30.218;2024-03-08T04:06:47;101051.00;;;8.00
82411;BMP180;76378;60.040;30.218;2024-03-08T04:07:48;101081.00;;;8.00
82411;BMP180;76378;60.040;30.218;2024-03-08T04:08:48;101055.00;;;8.00
82411;BMP180;76378;60.040;30.218;2024-03-08T04:09:49;101108.00;;;8.00
82411;BMP180;76378;60.040;30.218;2024-03-08T04:10:50;101074.00;;;8.00
82411;BMP180;76378;60.040;30.218;2024-03-08T04:11:51;101115.00;;;8.00
82411;BMP180;76378;60.040;30.218;2024-03-08T04:12:53;101090.00;;;8.00
82411;BMP180;76378;60.040;30.218;2024-03-08T04:13:53;101111.00;;;8.00
82411;BMP180;76378;60.040;30.218;2024-03-08T04:14:55;101086.00;;;8.00
82411;BMP180;76378;60.040;30.218;2024-03-08T04:15:55;101117.00;;;8.00
82411;BMP180;76378;60.040;30.218;2024-03-08T04:16:56;101112.00;;;8.00
82411;BMP180;76378;60.040;30.218;2024-03-08T04:17:56;101100.00;;;8.00
82411;BMP180;76378;60.040;30.218;2024-03-08T04:18:58;101043.00;;;8.00
82411;BMP180;76378;60.040;30.218;2024-03-08T04:19:58;101102.00;;;7.90
82411;BMP180;76378;60.040;30.218;2024-03-08T04:20:59;101096.00;;;8.00
82411;BMP180;76378;60.040;30.218;2024-03-08T04:22:00;101072.00;;;8.00
82411;BMP180;76378;60.040;30.218;2024-03-08T04:23:02;101048.00;;;8.00
82411;BMP180;76378;60.040;30.218;2024-03-08T04:24:02;101108.00;;;8.00
82411;BMP180;76378;60.040;30.218;2024-03-08T04:25:03;101099.00;;;8.00
82411;BMP180;76378;60.040;30.218;2024-03-08T04:26:04;101059.00;;;8.00
82411;BMP180;76378;60.040;30.218;2024-03-08T04:27:06;101107.00;;;8.00
82411;BMP180;76378;60.040;30.218;2024-03-08T04:28:08;101066.00;;;8.00
82411;BMP180;76378;60.040;30.218;2024-03-08T04:29:12;101105.00;;;8.00
82411;BMP180;76378;60.040;30.218;2024-03-08T04:30:14;101064.00;;;8.00
82411;BMP180;76378;60.040;30.218;2024-03-08T04:31:15;101103.00;;;8.00
82411;BMP180;76378;60.040;30.218;2024-03-08T04:32:16;101101.00;;;8.00
82411;BMP180;76378;60.040;30.218;2024-03-08T04:33:16;101106.00;;;8.00
82411;BMP180;76378;60.040;30.218;2024-03-08T04:34:18;101066.00;;;8.00
82411;BMP180;76378;60.040;30.218;2024-03-08T04:35:18;101088.00;;;8.00
82411;BMP180;76378;60.040;30.218;2024-03-08T04:36:20;101081.00;;;8.00
82411;BMP180;76378;60.040;30.218;2024-03-08T04:37:21;101047.00;;;8.00
82411;BMP180;76378;60.040;30.218;2024-03-08T04:38:22;101101.00;;;8.00
82411;BMP180;76378;60.040;30.218;2024-03-08T04:39:22;101073.00;;;8.00
82411;BMP180;76378;60.040;30.218;2024-03-08T04:40:23;101050.00;;;8.00
82411;BMP180;76378;60.040;30.218;2024-03-08T04:41:24;101099.00;;;8.00
82411;BMP180;76378;60.040;30.218;2024-03-08T04:42:25;101035.00;;;8.00
82411;BMP180;76378;60.040;30.218;2024-03-08T04:43:26;101065.00;;;8.10
82411;BMP180;76378;60.040;30.218;2024-03-08T04:44:27;101106.00;;;8.10
82411;BMP180;76378;60.040;30.218;2024-03-08T04:45:28;101068.00;;;8.10
82411;BMP180;76378;60.040;30.218;2024-03-08T04:46:28;101086.00;;;8.10
82411;BMP180;76378;60.040;30.218;2024-03-08T04:47:29;101109.00;;;8.10
82411;BMP180;76378;60.040;30.218;2024-03-08T04:48:29;101103.00;;;8.10
82411;BMP180;76378;60.040;30.218;2024-03-08T04:49:30;101081.00;;;8.10
82411;BMP180;76378;60.040;30.218;2024-03-08T04:50:30;101090.00;;;8.10
82411;BMP180;76378;60.040;30.218;2024-03-08T04:51:31;101114.00;;;8.10
82411;BMP180;76378;60.040;30.218;2024-03-08T04:52:31;101115.00;;;8.10
82411;BMP180;76378;60.040;30.218;2024-03-08T04:53:32;101105.00;;;8.10
82411;BMP180;76378;60.040;30.218;2024-03-08T04:54:34;101055.00;;;8.10
82411;BMP180;76378;60.040;30.218;2024-03-08T04:55:35;101113.00;;;8.10
82411;BMP180;76378;60.040;30.218;2024-03-08T04:56:35;101122.00;;;8.10
82411;BMP180;76378;60.040;30.218;2024-03-08T04:57:36;101040.00;;;8.10
82411;BMP180;76378;60.040;30.218;2024-03-08T04:58:37;101054.00;;;8.10
82411;BMP180;76378;60.040;30.218;2024-03-08T04:59:37;101075.00;;;8.10
82411;BMP180;76378;60.040;30.218;2024-03-08T05:00:38;101080.00;;;8.10
82411;BMP180;76378;60.040;30.218;2024-03-08T05:01:39;101093.00;;;8.10
82411;BMP180;76378;60.040;30.218;2024-03-08T05:02:40;101104.00;;;8.10
82411;BMP180;76378;60.040;30.218;2024-03-08T05:03:41;101114.00;;;8.10
82411;BMP180;76378;60.040;30.218;2024-03-08T05:04:42;101107.00;;;8.10
82411;BMP180;76378;60.040;30.218;2024-03-08T05:05:42;101092.00;;;8.10
82411;BMP180;76378;60.040;30.218;2024-03-08T05:06:43;101094.00;;;8.10
82411;BMP180;76378;60.040;30.218;2024-03-08T05:07:43;101117.00;;;8.20
82411;BMP180;76378;60.040;30.218;2024-03-08T05:08:45;101115.00;;;8.20
82411;BMP180;76378;60.040;30.218;2024-03-08T05:09:46;101071.00;;;8.20
82411;BMP180;76378;60.040;30.218;2024-03-08T05:10:51;101122.00;;;8.20
82411;BMP180;76378;60.040;30.218;2024-03-08T05:11:52;101122.00;;;8.20
82411;BMP180;76378;60.040;30.218;2024-03-08T05:12:52;101116.00;;;8.20
82411;BMP180;76378;60.040;30.218;2024-03-08T05:13:53;101119.00;;;8.20
82411;BMP180;76378;60.040;30.218;2024-03-08T05:14:53;101049.00;;;8.20
82411;BMP180;76378;60.040;30.218;2024-03-08T05:15:55;101096.00;;;8.20
82411;BMP180;76378;60.040;30.218;2024-03-08T05:16:58;101113.00;;;8.20
82411;BMP180;76378;60.040;30.218;2024-03-08T05:17:59;101111.00;;;8.20
82411;BMP180;76378;60.040;30.218;2024-03-08T05:18:59;101108.00;;;8.20
82411;BMP180;76378;60.040;30.218;2024-03-08T05:20:00;101101.00;;;8.20
82411;BMP180;76378;60.040;30.218;2024-03-08T05:21:01;101100.00;;;8.20
82411;BMP180;76378;60.040;30.218;2024-03-08T05:22:04;101111.00;;;8.20
82411;BMP180;76378;60.040;30.218;2024-03-08T05:23:05;101036.00;;;8.20
82411;BMP180;76378;60.040;30.218;2024-03-08T05:24:05;101125.00;;;8.20
82411;BMP180;76378;60.040;30.218;2024-03-08T05:25:06;101123.00;;;8.20
82411;BMP180;76378;60.040;30.218;2024-03-08T05:26:08;101112.00;;;8.20
82411;BMP180;76378;60.040;30.218;2024-03-08T05:27:09;101127.00;;;8.20
82411;BMP180;76378;60.040;30.218;2024-03-08T05:28:09;101133.00;;;8.20
82411;BMP180;76378;60.040;30.218;2024-03-08T05:29:10;101138.00;;;8.30
82411;BMP180;76378;60.040;30.218;2024-03-08T05:30:11;101116.00;;;8.30
82411;BMP180;76378;60.040;30.218;2024-03-08T05:31:21;101141.00;;;8.30
82411;BMP180;76378;60.040;30.218;2024-03-08T05:32:24;101085.00;;;8.30
82411;BMP180;76378;60.040;30.218;2024-03-08T05:33:25;101116.00;;;8.30
82411;BMP180;76378;60.040;30.218;2024-03-08T05:34:25;101051.00;;;8.30
82411;BMP180;76378;60.040;30.218;2024-03-08T05:35:28;101128.00;;;8.40
82411;BMP180;76378;60.040;30.218;2024-03-08T05:36:29;101129.00;;;8.40
82411;BMP180;76378;60.040;30.218;2024-03-08T05:37:30;101129.00;;;8.40
82411;BMP180;76378;60.040;30.218;2024-03-08T05:38:31;101139.00;;;8.40
82411;BMP180;76378;60.040;30.218;2024-03-08T05:39:32;101123.00;;;8.40
82411;BMP180;76378;60.040;30.218;2024-03-08T05:40:32;101124.00;;;8.50
82411;BMP180;76378;60.040;30.218;2024-03-08T05:41:33;101086.00;;;8.50
82411;BMP180;76378;60.040;30.218;2024-03-08T05:42:35;101114.00;;;8.50
82411;BMP180;76378;60.040;30.218;2024-03-08T05:43:36;101121.00;;;8.50
82411;BMP180;76378;60.040;30.218;2024-03-08T05:44:37;101124.00;;;8.50
82411;BMP180;76378;60.040;30.218;2024-03-08T05:45:40;101128.00;;;8.50
82411;BMP180;76378;60.040;30.218;2024-03-08T05:46:41;101086.00;;;8.60
82411;BMP180;76378;60.040;30.218;2024-03-08T05:47:41;101128.00;;;8.60
82411;BMP180;76378;60.040;30.218;2024-03-08T05:48:42;101101.00;;;8.60